Time;durP1;ratioP1;P1;durP2;ratioP2;P2;SDS_P1;SDS_P2;PMS_P1;PMS_P2;Temp;Humidity;BMP_temperature;BMP_pressure;BME280_temperature;BME280_humidity;BME280_pressure;Samples;Min_cycle;Max_cycle;Signal;HPM_P1;HPM_P2
2021/12/15 00:02:23;;;;;;;216.93;104.87;;;;;;;2.20;100.00;100105.68;4076145;86;21740;-86
2021/12/15 00:22:32;;;;;;;220.15;100.78;;;;;;;2.02;100.00;100112.69;4200181;83;21040;-86
2021/12/15 00:29:28;;;;;;;219.95;104.65;;;;;;;2.04;100.00;100109.69;4205954;83;21584;-86
2021/12/15 00:35:43;;;;;;;248.82;111.77;;;;;;;2.22;100.00;100105.66;4192878;85;21040;-86
2021/12/15 00:42:04;;;;;;;232.05;107.72;;;;;;;2.21;100.00;100109.44;4169706;83;21118;-86
2021/12/15 00:48:42;;;;;;;250.03;110.10;;;;;;;2.26;100.00;100122.06;4260490;83;21035;-86
2021/12/15 00:54:43;;;;;;;239.93;102.02;;;;;;;2.26;100.00;100127.47;4185392;83;21684;-86
2021/12/15 01:42:20;;;;;;;250.68;105.85;;;;;;;2.29;100.00;100126.88;4191651;84;21063;-85
2021/12/15 01:48:23;;;;;;;240.30;104.27;;;;;;;2.32;100.00;100119.56;4206021;85;21043;-85
2021/12/15 01:55:11;;;;;;;231.57;99.45;;;;;;;2.31;100.00;100126.05;4130850;85;21142;-85
2021/12/15 02:08:19;;;;;;;173.20;71.85;;;;;;;2.43;100.00;100119.63;4179111;83;21150;-86
2021/12/15 02:14:48;;;;;;;172.40;68.50;;;;;;;2.49;100.00;100117.91;4207250;83;21064;-85
2021/12/15 02:21:13;;;;;;;172.90;71.37;;;;;;;2.54;100.00;100119.73;4188783;83;21040;-85
2021/12/15 02:27:22;;;;;;;183.25;79.35;;;;;;;2.66;100.00;100116.81;4195513;83;21023;-85
2021/12/15 02:48:30;;;;;;;220.40;91.87;;;;;;;2.69;100.00;100133.80;4077828;86;21240;-85
2021/12/15 03:01:17;;;;;;;194.55;84.03;;;;;;;2.61;100.00;100129.63;3909552;89;21053;-85
2021/12/15 03:21:27;;;;;;;261.77;100.47;;;;;;;2.63;100.00;100169.34;4071003;86;21655;-86
2021/12/15 03:41:31;;;;;;;202.20;78.17;;;;;;;2.57;100.00;100169.17;4074260;86;21056;-85
2021/12/15 03:55:01;;;;;;;235.88;91.47;;;;;;;2.50;100.00;100171.43;4112721;86;21379;-85
2021/12/15 04:01:27;;;;;;;223.40;90.67;;;;;;;2.45;100.00;100176.37;4109306;86;20979;-85
2021/12/15 04:07:51;;;;;;;227.62;86.87;;;;;;;2.47;100.00;100191.75;4076163;86;21080;-86
2021/12/15 04:14:19;;;;;;;203.47;84.97;;;;;;;2.48;100.00;100184.42;4203778;83;21078;-85
2021/12/15 04:20:41;;;;;;;226.98;86.67;;;;;;;2.46;100.00;100193.40;4141845;85;21687;-86
2021/12/15 04:27:16;;;;;;;229.72;93.00;;;;;;;2.41;100.00;100190.19;4075788;86;21024;-86
2021/12/15 04:33:54;;;;;;;230.83;93.97;;;;;;;2.37;100.00;100187.83;4179041;84;21108;-86
2021/12/15 04:40:28;;;;;;;202.47;85.03;;;;;;;2.44;100.00;100191.53;4066761;85;21196;-87
2021/12/15 04:47:14;;;;;;;214.48;87.37;;;;;;;2.61;100.00;100203.97;4114891;85;21082;-86
2021/12/15 04:53:19;;;;;;;224.12;87.12;;;;;;;2.68;100.00;100216.02;4141917;84;22446;-86
2021/12/15 04:59:25;;;;;;;195.87;78.12;;;;;;;2.77;100.00;100222.92;4101234;85;21523;-86
2021/12/15 05:05:28;;;;;;;;;;;;;;;2.71;100.00;100222.75;4157250;84;21012;-87
2021/12/15 05:11:33;;;;;;;189.62;76.65;;;;;;;2.63;100.00;100223.41;4137311;81;41409;-86
2021/12/15 05:17:38;;;;;;;172.82;70.40;;;;;;;2.63;100.00;100226.90;4139152;84;21644;-86
2021/12/15 05:23:45;;;;;;;162.95;67.67;;;;;;;2.60;100.00;100230.19;4154810;83;21521;-86
2021/12/15 05:30:00;;;;;;;148.75;65.70;;;;;;;2.59;100.00;100229.13;4150634;85;21092;-86
2021/12/15 05:36:02;;;;;;;143.02;62.08;;;;;;;2.64;100.00;100227.17;4155347;83;21143;-85
2021/12/15 05:42:28;;;;;;;141.43;61.83;;;;;;;2.63;100.00;100237.72;4268717;79;35162;-85
2021/12/15 05:48:40;;;;;;;144.40;58.52;;;;;;;2.68;100.00;100227.37;4458919;78;21570;-85
2021/12/15 05:54:54;;;;;;;136.28;59.73;;;;;;;2.71;100.00;100224.11;4454806;78;21567;-86
2021/12/15 06:00:57;;;;;;;143.93;60.00;;;;;;;2.68;100.00;100230.07;4355289;79;21070;-86
2021/12/15 06:06:59;;;;;;;160.82;63.13;;;;;;;2.69;100.00;100237.11;4368336;80;21043;-85
2021/12/15 06:13:06;;;;;;;151.65;62.73;;;;;;;2.75;100.00;100246.20;4353185;80;21537;-86
2021/12/15 06:19:14;;;;;;;133.78;59.05;;;;;;;2.83;100.00;100250.14;4249289;82;21168;-85
2021/12/15 06:25:19;;;;;;;127.40;54.08;;;;;;;2.88;100.00;100250.07;4347537;80;22178;-85
2021/12/15 06:31:44;;;;;;;131.18;56.50;;;;;;;2.89;100.00;100251.67;4340538;80;21055;-86
2021/12/15 06:38:06;;;;;;;143.90;61.30;;;;;;;2.91;100.00;100261.66;4112512;84;21452;-84
2021/12/15 06:44:15;;;;;;;135.05;59.65;;;;;;;2.94;100.00;100263.77;4177588;83;21114;-85
2021/12/15 07:17:15;;;;;;;146.02;66.47;;;;;;;2.97;100.00;100290.23;4285789;81;21126;-85
2021/12/15 07:23:23;;;;;;;153.10;70.30;;;;;;;2.99;100.00;100302.92;4296704;81;22314;-86
2021/12/15 07:29:33;;;;;;;148.30;69.58;;;;;;;3.03;100.00;100304.73;4224215;81;21030;-86
2021/12/15 07:35:43;;;;;;;153.97;69.55;;;;;;;3.08;100.00;100299.26;4178733;83;21080;-85
2021/12/15 07:42:12;;;;;;;138.05;67.08;;;;;;;3.15;100.00;100315.91;4195588;83;21084;-86
2021/12/15 07:55:27;;;;;;;147.87;68.53;;;;;;;3.25;100.00;100320.36;4173472;83;21291;-85
2021/12/15 08:01:53;;;;;;;144.45;67.82;;;;;;;3.31;100.00;100344.07;4243496;82;21075;-85
2021/12/15 16:54:17;;;;;;;100.15;49.10;;;;;;;4.37;100.00;100360.09;4662645;74;23501;-87
2021/12/15 17:00:33;;;;;;;103.55;49.93;;;;;;;4.33;100.00;100357.71;4596398;75;21066;-86
2021/12/15 17:06:36;;;;;;;71.63;35.13;;;;;;;4.35;100.00;100360.36;4596784;75;20991;-87
2021/12/15 17:12:48;;;;;;;93.12;48.23;;;;;;;4.35;100.00;100358.22;4593285;75;21064;-87
2021/12/15 17:18:50;;;;;;;102.93;49.47;;;;;;;4.37;100.00;100361.45;4594186;75;21066;-88
2021/12/15 17:24:52;;;;;;;97.10;49.03;;;;;;;4.37;100.00;100364.16;4583537;75;21503;-87
2021/12/15 17:31:18;;;;;;;98.78;49.18;;;;;;;4.38;100.00;100355.72;4578134;75;21054;-88
2021/12/15 17:37:23;;;;;;;105.72;50.40;;;;;;;4.38;100.00;100357.62;4601880;75;21046;-88
2021/12/15 17:43:29;;;;;;;101.87;51.40;;;;;;;4.40;100.00;100362.19;4578833;75;21112;-88
2021/12/15 17:49:42;;;;;;;102.00;50.40;;;;;;;4.42;100.00;100359.96;4608913;75;21067;-87
2021/12/15 17:55:48;;;;;;;93.80;47.90;;;;;;;4.43;100.00;100352.09;4585377;75;21010;-89
2021/12/15 18:01:51;;;;;;;99.00;50.05;;;;;;;4.43;100.00;100363.73;4487288;75;9999657;-88
2021/12/15 18:07:52;;;;;;;108.75;54.18;;;;;;;4.44;100.00;100362.64;4599156;75;21029;-88
2021/12/15 18:14:00;;;;;;;102.80;52.78;;;;;;;4.44;100.00;100353.70;4591554;75;21029;-89
2021/12/15 18:20:05;;;;;;;113.62;56.37;;;;;;;4.45;100.00;100349.33;4618498;75;21097;-87
2021/12/15 18:26:07;;;;;;;104.97;54.35;;;;;;;4.45;100.00;100343.09;4603699;75;21468;-90
2021/12/15 18:32:11;;;;;;;105.75;56.73;;;;;;;4.45;100.00;100342.55;4584228;75;21635;-87
2021/12/15 18:38:14;;;;;;;107.10;55.03;;;;;;;4.49;100.00;100348.17;4600172;75;21053;-89
2021/12/15 18:44:18;;;;;;;97.80;53.25;;;;;;;4.48;100.00;100351.43;4618825;75;21543;-89
2021/12/15 18:50:24;;;;;;;93.00;51.37;;;;;;;4.49;100.00;100353.59;4624651;75;21002;-88
2021/12/15 18:56:23;;;;;;;87.17;48.95;;;;;;;4.48;100.00;100342.48;4649654;75;21951;-90
2021/12/15 19:02:28;;;;;;;91.90;49.48;;;;;;;4.46;100.00;100346.07;4628575;75;22401;-88
2021/12/15 19:08:32;;;;;;;88.37;48.02;;;;;;;4.51;100.00;100340.55;4653253;75;21074;-89
2021/12/15 19:14:33;;;;;;;96.08;50.98;;;;;;;4.55;100.00;100338.83;4635244;75;21104;-90
2021/12/15 19:20:36;;;;;;;94.37;51.20;;;;;;;4.58;100.00;100350.42;4648956;75;21106;-89
2021/12/15 19:26:39;;;;;;;96.53;51.90;;;;;;;4.59;100.00;100361.51;4645000;75;21015;-90
2021/12/15 19:32:40;;;;;;;92.20;49.65;;;;;;;4.58;100.00;100364.80;4644313;75;21521;-88
2021/12/15 19:38:42;;;;;;;86.47;45.88;;;;;;;4.60;100.00;100356.36;4639193;75;21004;-88
2021/12/15 19:44:44;;;;;;;88.97;48.78;;;;;;;4.60;100.00;100365.85;4635816;75;21515;-89
2021/12/15 19:50:46;;;;;;;89.58;47.93;;;;;;;4.60;100.00;100365.27;4637594;75;21022;-90
2021/12/15 19:56:48;;;;;;;83.60;46.75;;;;;;;4.61;100.00;100371.52;4631316;75;20971;-88
2021/12/15 20:02:51;;;;;;;98.50;51.00;;;;;;;4.64;100.00;100373.62;4647661;75;21711;-88
2021/12/15 20:08:54;;;;;;;90.45;48.63;;;;;;;4.65;100.00;100383.37;4637878;75;21602;-89
2021/12/15 20:14:57;;;;;;;88.12;46.63;;;;;;;4.64;100.00;100393.95;4633284;75;21643;-88
2021/12/15 20:20:59;;;;;;;90.20;47.33;;;;;;;4.64;100.00;100385.82;4628019;75;21052;-91
2021/12/15 20:27:05;;;;;;;83.17;45.45;;;;;;;4.64;100.00;100385.28;4641713;75;21033;-91
2021/12/15 20:33:11;;;;;;;95.00;51.35;;;;;;;4.62;100.00;100371.20;4633000;75;21538;-91
2021/12/15 20:39:12;;;;;;;89.57;47.63;;;;;;;4.64;100.00;100370.36;4656838;75;21477;-87
2021/12/15 20:45:16;;;;;;;93.10;47.78;;;;;;;4.62;100.00;100362.26;4654994;75;20984;-89
2021/12/15 20:51:18;;;;;;;84.35;45.55;;;;;;;4.60;100.00;100363.92;4608284;75;22029;-89
2021/12/15 20:57:20;;;;;;;84.90;44.00;;;;;;;4.60;100.00;100380.19;4593043;75;21042;-87
2021/12/15 21:03:23;;;;;;;74.65;41.37;;;;;;;4.62;100.00;100373.92;4591936;75;21026;-90
2021/12/15 21:09:30;;;;;;;77.55;37.93;;;;;;;4.66;100.00;100364.09;4594056;75;21054;-89
2021/12/15 21:15:33;;;;;;;73.72;40.65;;;;;;;4.70;100.00;100362.37;4605621;75;21004;-89
2021/12/15 21:21:35;;;;;;;65.72;37.88;;;;;;;4.72;100.00;100362.06;4596783;75;21024;-87
2021/12/15 21:27:37;;;;;;;73.35;38.73;;;;;;;4.73;100.00;100352.27;4579271;75;21581;-90
2021/12/15 21:33:40;;;;;;;57.55;34.60;;;;;;;4.77;100.00;100360.06;4586783;75;21019;-87
2021/12/15 21:39:43;;;;;;;64.53;34.98;;;;;;;4.80;100.00;100377.62;4609424;75;21053;-90
2021/12/15 21:45:55;;;;;;;70.25;37.78;;;;;;;4.82;100.00;100390.34;4611331;75;21602;-87
2021/12/15 21:51:57;;;;;;;86.17;45.17;;;;;;;4.83;100.00;100397.37;4568840;75;21044;-86
2021/12/15 21:58:02;;;;;;;74.70;41.48;;;;;;;4.81;100.00;100399.03;4499965;77;20997;-88
2021/12/15 22:04:07;;;;;;;93.72;48.08;;;;;;;4.77;100.00;100385.84;4499594;77;21915;-87
2021/12/15 22:10:11;;;;;;;86.75;46.13;;;;;;;4.74;100.00;100380.20;4486644;77;21031;-87
2021/12/15 22:16:14;;;;;;;89.60;45.65;;;;;;;4.72;100.00;100394.07;4494453;77;21025;-87
2021/12/15 22:22:20;;;;;;;86.40;44.67;;;;;;;4.72;100.00;100389.19;4491746;77;21057;-87
2021/12/15 22:28:22;;;;;;;92.42;49.13;;;;;;;4.71;100.00;100388.95;4491992;76;20948;-89
2021/12/15 22:34:24;;;;;;;103.60;53.25;;;;;;;4.65;100.00;100374.67;4503865;76;21017;-88
2021/12/15 22:40:27;;;;;;;93.07;48.78;;;;;;;4.61;100.00;100378.30;4495786;76;21091;-90
2021/12/15 22:46:29;;;;;;;90.20;48.42;;;;;;;4.57;100.00;100371.88;4396474;79;21098;-87
2021/12/15 22:52:30;;;;;;;86.60;46.63;;;;;;;4.54;100.00;100355.64;4399915;78;20975;-87
2021/12/15 22:58:32;;;;;;;85.05;44.67;;;;;;;4.54;100.00;100352.15;4468863;78;21127;-88
2021/12/15 23:04:34;;;;;;;94.58;47.75;;;;;;;4.51;100.00;100352.18;4488727;78;21013;-88
2021/12/15 23:10:47;;;;;;;91.87;48.38;;;;;;;4.47;100.00;100350.38;4480950;78;21056;-87
2021/12/15 23:16:43;;;;;;;92.10;51.55;;;;;;;4.51;100.00;100363.60;4490175;78;21829;-88
2021/12/15 23:22:46;;;;;;;94.80;51.58;;;;;;;4.50;100.00;100354.65;4488688;78;21030;-90
2021/12/15 23:28:53;;;;;;;102.55;53.85;;;;;;;4.51;100.00;100363.60;4470636;78;21569;-89
2021/12/15 23:35:32;;;;;;;99.20;48.35;;;;;;;4.55;100.00;100362.69;4462361;78;21081;-88
